Time;durP1;ratioP1;P1;durP2;ratioP2;P2;SDS_P1;SDS_P2;PMS_P1;PMS_P2;Temp;Humidity;BMP_temperature;BMP_pressure;BME280_temperature;BME280_humidity;BME280_pressure;Samples;Min_cycle;Max_cycle;Signal;HPM_P1;HPM_P2
2022/11/06 07:33:17;;;;;;;6.88;3.55;;;;;;;7.11;72.64;96623.22;2087653;28;20564;-76
2022/11/06 07:37:09;;;;;;;12.15;3.35;;;;;;;6.67;72.77;96643.59;2109402;27;21086;-77
2022/11/06 07:39:30;;;;;;;6.00;2.97;;;;;;;6.08;74.80;96634.81;2064600;27;1229353;-76
2022/11/06 07:40:32;;;;;;;4.15;2.40;;;;;;;5.58;74.97;96613.66;2109302;28;20451;-77
2022/11/06 07:43:08;;;;;;;8.20;2.97;;;;;;;6.02;75.57;96629.84;2104634;27;20565;-79
2022/11/06 07:44:09;;;;;;;4.32;2.85;;;;;;;6.48;73.92;96625.13;2106880;28;20195;-77
2022/11/06 07:45:11;;;;;;;8.25;2.45;;;;;;;6.85;72.17;96631.81;2106764;28;20234;-78
2022/11/06 07:46:12;;;;;;;5.55;2.65;;;;;;;7.45;70.76;96626.50;2098881;28;20698;-78
2022/11/06 07:47:14;;;;;;;6.43;2.55;;;;;;;6.92;70.47;96622.09;2095076;28;20287;-78
2022/11/06 07:48:15;;;;;;;5.70;2.60;;;;;;;7.27;69.39;96612.34;2094143;28;20224;-78
2022/11/06 07:49:17;;;;;;;5.15;2.38;;;;;;;6.97;70.84;96607.22;2092059;28;20264;-77
2022/11/06 07:50:18;;;;;;;5.40;2.78;;;;;;;7.79;69.20;96622.78;2089013;28;20288;-79
2022/11/06 07:51:20;;;;;;;14.93;3.40;;;;;;;6.93;69.48;96592.63;2091242;28;20220;-79
2022/11/06 07:52:25;;;;;;;4.18;2.28;;;;;;;7.43;70.09;96618.75;2090685;28;20291;-78
2022/11/06 07:53:26;;;;;;;8.13;2.78;;;;;;;7.59;69.13;96620.84;2091540;28;20300;-78
2022/11/06 07:54:28;;;;;;;5.18;2.20;;;;;;;7.95;67.54;96607.50;2090844;28;20774;-79
2022/11/06 07:55:29;;;;;;;4.70;2.83;;;;;;;7.81;68.99;96623.59;2089542;28;20320;-79
2022/11/06 07:56:31;;;;;;;4.07;2.80;;;;;;;6.87;69.85;96609.25;2088428;28;20311;-79
2022/11/06 07:57:35;;;;;;;4.85;2.80;;;;;;;7.03;70.17;96626.06;2089676;28;20509;-79
2022/11/06 07:58:37;;;;;;;8.18;2.97;;;;;;;6.05;73.26;96607.25;2093466;28;20722;-78
2022/11/06 08:05:04;;;;;;;6.97;3.28;;;;;;;6.44;73.26;96620.91;2090640;28;20193;-77
2022/11/06 08:06:05;;;;;;;4.13;3.13;;;;;;;6.92;72.45;96622.94;2091973;28;20227;-80
2022/11/06 08:07:06;;;;;;;6.32;3.22;;;;;;;7.07;71.06;96589.59;2091980;28;20247;-80
2022/11/06 08:08:08;;;;;;;6.30;2.70;;;;;;;6.17;73.15;96577.56;2092139;28;20678;-80
2022/11/06 08:09:10;;;;;;;13.10;3.60;;;;;;;7.09;71.48;96583.47;2087773;28;20253;-79
2022/11/06 08:10:11;;;;;;;6.65;3.13;;;;;;;5.79;74.89;96607.06;2087607;28;20712;-79
2022/11/06 08:11:13;;;;;;;5.53;2.63;;;;;;;6.33;74.03;96596.09;2093371;28;20232;-80
2022/11/06 08:12:14;;;;;;;6.18;3.15;;;;;;;7.14;72.33;96612.72;2088253;28;20204;-79
2022/11/06 08:13:17;;;;;;;6.47;3.90;;;;;;;7.49;70.27;96607.28;2088261;28;20224;-79
2022/11/06 08:14:23;;;;;;;8.13;3.40;;;;;;;8.25;68.12;96616.00;2089563;28;20283;-79
2022/11/06 08:15:24;;;;;;;5.47;3.17;;;;;;;8.95;65.84;96589.97;2092779;28;20212;-80
2022/11/06 08:16:26;;;;;;;4.65;2.75;;;;;;;9.40;64.62;96609.91;2087455;28;20923;-80
2022/11/06 08:29:03;;;;;;;5.78;3.28;;;;;;;11.17;60.20;96618.75;2089575;28;20180;-72
2022/11/06 08:30:05;;;;;;;8.00;2.92;;;;;;;11.91;58.52;96620.41;2089303;28;20338;-72
2022/11/06 08:31:08;;;;;;;7.20;2.88;;;;;;;12.10;57.82;96627.34;2088203;28;20283;-72
2022/11/06 08:32:09;;;;;;;8.95;3.55;;;;;;;12.25;57.12;96594.28;2089474;28;20289;-73
2022/11/06 08:33:11;;;;;;;6.20;3.33;;;;;;;11.55;57.75;96615.22;2093906;28;20200;-72
2022/11/06 08:34:12;;;;;;;6.68;3.20;;;;;;;10.45;60.30;96583.78;2091396;28;20253;-73
2022/11/06 08:35:14;;;;;;;4.57;3.13;;;;;;;10.74;60.61;96603.34;2093460;28;20292;-72
2022/11/06 08:36:15;;;;;;;8.52;3.30;;;;;;;10.13;61.74;96609.50;2092678;28;20312;-73
2022/11/06 08:37:17;;;;;;;5.95;4.30;;;;;;;8.90;65.85;96577.16;2089293;28;20657;-72
2022/11/06 08:38:18;;;;;;;11.32;3.13;;;;;;;8.90;66.00;96595.38;2089120;28;20237;-71
2022/11/06 08:39:19;;;;;;;4.45;3.28;;;;;;;10.07;64.65;96607.16;2087807;28;20726;-72
2022/11/06 08:40:21;;;;;;;4.43;3.20;;;;;;;10.40;62.45;96593.59;2088692;28;20237;-72
2022/11/06 08:41:31;;;;;;;7.68;3.60;;;;;;;11.18;59.83;96576.03;2090451;28;20649;-72
2022/11/06 08:42:36;;;;;;;4.95;3.53;;;;;;;9.70;64.48;96599.16;2087923;28;20271;-72
2022/11/06 08:43:38;;;;;;;6.00;3.65;;;;;;;10.52;62.57;96607.84;2090668;28;20205;-72
2022/11/06 08:44:42;;;;;;;5.28;3.10;;;;;;;10.58;61.30;96579.69;2086762;28;20204;-74
2022/11/06 08:45:44;;;;;;;6.93;3.22;;;;;;;10.03;62.33;96597.75;2095456;22;20188;-69
2022/11/06 08:46:48;;;;;;;5.28;2.42;;;;;;;9.92;63.83;96577.38;2082078;28;20231;-70
2022/11/06 08:47:52;;;;;;;6.82;3.33;;;;;;;10.46;62.11;96601.13;2077892;28;20252;-70
2022/11/06 08:48:54;;;;;;;5.43;3.45;;;;;;;10.75;61.19;96599.81;2084249;28;20624;-70
2022/11/06 08:49:55;;;;;;;4.93;2.70;;;;;;;10.41;61.91;96587.41;2082199;28;20714;-71
2022/11/06 08:50:57;;;;;;;5.78;3.35;;;;;;;10.32;62.98;96598.25;2081174;28;20289;-70
2022/11/06 08:51:58;;;;;;;6.47;3.20;;;;;;;10.10;63.58;96591.38;2081030;28;20710;-71
2022/11/06 08:53:03;;;;;;;6.78;4.03;;;;;;;11.37;60.45;96580.38;2078083;28;20285;-71
2022/11/06 08:54:04;;;;;;;5.78;3.45;;;;;;;11.36;60.90;96607.44;2076640;28;20212;-70
2022/11/06 08:55:06;;;;;;;8.27;3.80;;;;;;;10.26;61.94;96591.56;2076254;28;20563;-71
2022/11/06 08:56:07;;;;;;;4.88;3.28;;;;;;;10.52;62.06;96602.63;2075730;28;20238;-70
2022/11/06 08:57:09;;;;;;;6.05;3.80;;;;;;;11.16;60.81;96609.25;2075314;28;20292;-70
2022/11/06 08:58:10;;;;;;;5.82;3.60;;;;;;;11.30;60.26;96594.66;2076347;28;20285;-70
2022/11/06 09:05:59;;;;;;;33.63;18.70;;;;;;;11.47;60.40;96625.22;2024973;28;20317;-69
2022/11/06 09:07:00;;;;;;;9.73;6.20;;;;;;;11.69;59.65;96646.75;2072098;28;20239;-69
2022/11/06 09:08:02;;;;;;;8.77;4.43;;;;;;;11.77;59.59;96647.25;2070802;28;20242;-70
2022/11/06 09:09:03;;;;;;;10.52;6.57;;;;;;;11.98;59.28;96667.22;2072525;28;20217;-69
2022/11/06 09:10:05;;;;;;;12.80;7.32;;;;;;;11.32;60.55;96672.06;2071674;28;20241;-70
2022/11/06 09:11:07;;;;;;;7.75;4.28;;;;;;;11.96;59.41;96669.94;2072220;28;20689;-68
2022/11/06 09:12:12;;;;;;;5.97;4.38;;;;;;;12.00;58.77;96666.22;2072275;28;20603;-67
2022/11/06 09:13:13;;;;;;;8.30;4.40;;;;;;;12.08;58.42;96663.22;2072228;28;20198;-67
2022/11/06 09:14:15;;;;;;;7.20;4.30;;;;;;;11.72;58.75;96667.56;2072165;28;20283;-67
2022/11/06 09:15:18;;;;;;;9.10;4.65;;;;;;;12.11;58.60;96646.50;2072686;28;20338;-69
2022/11/06 09:16:19;;;;;;;7.13;4.68;;;;;;;12.04;58.68;96646.81;2071942;28;20741;-68
2022/11/06 09:17:23;;;;;;;8.43;4.47;;;;;;;11.99;59.83;96666.31;2072530;28;20255;-69
2022/11/06 09:18:24;;;;;;;6.53;3.80;;;;;;;11.81;60.13;96674.09;2071976;28;20321;-70
2022/11/06 09:19:25;;;;;;;5.72;3.70;;;;;;;12.09;59.92;96655.28;2072050;28;20244;-69
2022/11/06 09:20:27;;;;;;;6.93;3.97;;;;;;;11.64;59.65;96651.38;2072583;28;20298;-69
2022/11/06 09:21:29;;;;;;;7.10;4.40;;;;;;;12.05;59.35;96647.69;2071798;28;20727;-67
2022/11/06 09:22:30;;;;;;;6.05;3.42;;;;;;;12.25;58.82;96644.88;2071503;28;20206;-68
2022/11/06 09:23:32;;;;;;;6.00;3.88;;;;;;;13.07;57.38;96645.81;2071885;28;20732;-67
2022/11/06 09:24:33;;;;;;;5.32;4.10;;;;;;;13.20;55.91;96609.28;2072520;28;20292;-67
2022/11/06 09:25:56;;;;;;;5.00;3.45;;;;;;;13.84;55.30;96647.69;2074460;28;20233;-67
2022/11/06 09:26:57;;;;;;;6.53;3.75;;;;;;;14.56;53.83;96642.59;2044845;28;20770;-67
2022/11/06 09:27:59;;;;;;;6.43;3.58;;;;;;;14.56;53.67;96629.44;2056437;28;20283;-67
2022/11/06 09:29:01;;;;;;;6.22;4.22;;;;;;;15.48;51.73;96606.22;2066727;28;20194;-67
2022/11/06 09:30:02;;;;;;;5.93;3.67;;;;;;;15.59;50.94;96621.31;2072316;28;20289;-67
2022/11/06 09:31:04;;;;;;;8.27;3.90;;;;;;;14.68;51.95;96612.97;2072052;28;20289;-67
2022/11/06 09:32:06;;;;;;;7.78;4.22;;;;;;;13.71;53.96;96551.34;2072122;28;20242;-67
2022/11/06 09:33:07;;;;;;;11.23;4.32;;;;;;;15.18;52.28;96609.88;2071226;28;20203;-67
2022/11/06 09:34:14;;;;;;;5.60;3.42;;;;;;;16.27;49.56;96611.59;2072271;28;20198;-67
2022/11/06 09:35:16;;;;;;;10.40;3.45;;;;;;;14.88;51.37;96603.00;2075041;28;20321;-67
2022/11/06 09:36:18;;;;;;;8.82;3.72;;;;;;;16.00;49.75;96602.81;2072404;28;20252;-67
2022/11/06 09:37:19;;;;;;;7.35;3.60;;;;;;;16.30;48.06;96593.78;2071974;28;20713;-67
2022/11/06 09:38:20;;;;;;;6.10;3.30;;;;;;;15.72;51.61;96589.75;2079711;28;20238;-67
2022/11/06 09:39:22;;;;;;;5.68;3.80;;;;;;;15.87;50.80;96574.75;2071607;28;20210;-67
2022/11/06 09:40:30;;;;;;;6.00;3.55;;;;;;;13.81;52.47;96575.22;2062486;28;20234;-68
2022/11/06 09:41:31;;;;;;;11.35;4.15;;;;;;;12.38;56.80;96586.66;2071315;28;20233;-67
2022/11/06 09:42:52;;;;;;;9.27;3.20;;;;;;;14.62;53.91;96592.28;2072097;28;20889;-67
2022/11/06 09:44:02;;;;;;;5.05;3.40;;;;;;;16.36;49.21;96583.75;2071921;28;20264;-67
2022/11/06 09:45:16;;;;;;;8.18;3.70;;;;;;;17.21;47.64;96577.81;2071422;28;20830;-67
2022/11/06 09:46:28;;;;;;;5.85;3.95;;;;;;;17.16;47.24;96582.59;2078497;28;20237;-67
2022/11/06 09:47:37;;;;;;;5.13;3.60;;;;;;;17.35;47.10;96563.63;2077981;28;20694;-67
2022/11/06 09:48:46;;;;;;;4.78;3.55;;;;;;;16.84;46.40;96561.97;2072002;28;20202;-67
2022/11/06 09:49:53;;;;;;;5.50;3.80;;;;;;;16.19;48.54;96583.13;2072350;28;20866;-67
2022/11/06 09:51:00;;;;;;;6.10;3.97;;;;;;;15.78;49.56;96577.06;2071656;28;20290;-67
2022/11/06 09:52:17;;;;;;;4.80;3.63;;;;;;;16.07;49.50;96568.97;2072247;28;20228;-67
2022/11/06 09:53:50;;;;;;;9.98;4.53;;;;;;;15.96;49.28;96576.78;2072063;28;20202;-67
2022/11/06 09:54:56;;;;;;;7.20;3.70;;;;;;;15.07;49.85;96572.91;2072158;28;20767;-66
2022/11/06 09:56:01;;;;;;;6.40;3.58;;;;;;;13.93;53.17;96572.81;2071389;28;20557;-68
2022/11/06 09:57:12;;;;;;;6.95;4.15;;;;;;;14.53;52.79;96580.56;2071752;28;20233;-67
2022/11/06 09:58:19;;;;;;;7.38;4.80;;;;;;;14.23;52.53;96567.50;2071789;28;20308;-67
2022/11/06 09:59:21;;;;;;;11.48;4.50;;;;;;;14.03;53.45;96579.25;2070521;28;20297;-67
2022/11/06 10:00:22;;;;;;;7.03;4.10;;;;;;;14.52;53.03;96580.66;2072163;28;20346;-67
2022/11/06 10:01:39;;;;;;;7.85;3.55;;;;;;;14.19;53.89;96584.41;2071764;28;20226;-67
2022/11/06 10:02:47;;;;;;;8.13;4.55;;;;;;;14.15;53.43;96575.84;2071715;28;20573;-67
2022/11/06 10:03:53;;;;;;;11.75;8.00;;;;;;;13.98;53.91;96573.38;2072055;28;20217;-67
2022/11/06 10:05:35;;;;;;;17.88;9.95;;;;;;;14.32;52.84;96574.00;2070682;28;20293;-66
2022/11/06 10:06:36;;;;;;;7.22;4.15;;;;;;;13.96;53.75;96570.03;2070506;28;20756;-66
2022/11/06 10:07:41;;;;;;;5.78;3.50;;;;;;;13.62;54.56;96561.50;2072292;28;20253;-66
2022/11/06 10:08:43;;;;;;;6.57;4.63;;;;;;;14.00;54.52;96553.16;2071973;28;20324;-67
2022/11/06 10:09:44;;;;;;;5.93;3.55;;;;;;;14.06;54.56;96560.66;2074553;28;20230;-66
2022/11/06 10:10:53;;;;;;;6.65;4.03;;;;;;;14.21;54.71;96557.09;2073797;28;20229;-67
2022/11/06 10:12:12;;;;;;;9.13;4.65;;;;;;;13.85;55.93;96547.91;2071760;28;20673;-66
2022/11/06 10:13:20;;;;;;;5.15;3.40;;;;;;;14.87;52.43;96543.47;2071606;28;20709;-66
2022/11/06 10:14:30;;;;;;;5.75;3.60;;;;;;;14.65;53.68;96538.72;2071805;28;20286;-67
2022/11/06 10:15:52;;;;;;;7.45;3.53;;;;;;;14.11;55.06;96526.28;2071255;28;20632;-66
2022/11/06 10:17:05;;;;;;;11.13;3.50;;;;;;;12.66;56.67;96531.00;2071394;28;20231;-67
2022/11/06 10:18:11;;;;;;;5.13;3.10;;;;;;;12.62;58.56;96526.00;2071871;28;20700;-66
2022/11/06 10:19:31;;;;;;;6.78;4.10;;;;;;;13.51;56.68;96531.50;2072147;28;20793;-67
2022/11/06 10:20:49;;;;;;;5.35;3.10;;;;;;;11.90;58.08;96487.03;2071390;28;20211;-67
2022/11/06 10:22:14;;;;;;;6.43;3.20;;;;;;;11.69;61.56;96515.97;2071614;28;20312;-67
2022/11/06 10:23:18;;;;;;;6.97;3.38;;;;;;;12.73;59.31;96521.03;2072070;28;20695;-66
2022/11/06 10:24:28;;;;;;;5.43;3.42;;;;;;;12.74;58.56;96522.72;2071834;28;20764;-66
2022/11/06 10:25:52;;;;;;;4.65;2.90;;;;;;;13.32;56.60;96496.75;2072046;28;20235;-66
2022/11/06 10:26:56;;;;;;;8.73;3.33;;;;;;;12.53;58.40;96519.50;2071134;28;20221;-66
2022/11/06 10:28:03;;;;;;;5.63;3.35;;;;;;;13.46;58.15;96512.56;2070878;28;20239;-66
2022/11/06 10:29:23;;;;;;;6.50;2.60;;;;;;;12.49;58.36;96487.38;2071623;28;20240;-67
2022/11/06 10:30:46;;;;;;;5.90;3.38;;;;;;;12.37;59.47;96482.84;2071069;28;20204;-67
2022/11/06 10:32:32;;;;;;;6.57;3.38;;;;;;;12.29;59.59;96500.72;2070818;28;20319;-66
2022/11/06 10:33:34;;;;;;;4.43;2.95;;;;;;;11.33;62.53;96497.78;2071353;28;20203;-66
2022/11/06 10:34:43;;;;;;;6.13;3.25;;;;;;;11.05;63.84;96493.94;2071938;28;20198;-66
2022/11/06 10:36:02;;;;;;;8.75;3.47;;;;;;;11.63;60.92;96450.06;2071708;28;20271;-66
2022/11/06 10:37:10;;;;;;;4.68;2.78;;;;;;;10.55;62.59;96448.41;2071497;28;20565;-65
2022/11/06 10:38:23;;;;;;;5.50;3.20;;;;;;;10.31;64.70;96451.25;2070026;28;20728;-66
2022/11/06 10:39:30;;;;;;;4.95;2.95;;;;;;;10.56;64.39;96473.63;2070800;28;21015;-66
2022/11/06 10:40:35;;;;;;;5.13;2.95;;;;;;;9.28;67.04;96462.75;2075235;28;20278;-66
2022/11/06 10:41:37;;;;;;;5.18;3.22;;;;;;;9.40;68.17;96465.75;2073465;28;20263;-66
2022/11/06 10:42:41;;;;;;;5.53;3.17;;;;;;;9.63;67.51;96462.13;2071984;28;20668;-66
2022/11/06 10:43:49;;;;;;;4.90;3.15;;;;;;;9.15;69.76;96469.38;2071855;28;20924;-67
2022/11/06 10:44:56;;;;;;;5.88;3.25;;;;;;;9.56;67.98;96466.78;2071574;28;20194;-66
2022/11/06 10:46:05;;;;;;;5.30;3.22;;;;;;;9.53;68.16;96468.66;2070794;28;20238;-66
2022/11/06 10:47:17;;;;;;;3.75;2.63;;;;;;;10.06;66.29;96468.03;2071769;28;20221;-65
2022/11/06 10:48:28;;;;;;;4.90;2.95;;;;;;;10.34;65.59;96453.72;2071635;28;20245;-66
2022/11/06 10:49:44;;;;;;;5.20;3.30;;;;;;;10.12;66.38;96457.31;2071731;28;20201;-66
2022/11/06 10:51:04;;;;;;;5.00;3.30;;;;;;;10.12;66.92;96446.06;2071502;28;20206;-66
2022/11/06 10:52:47;;;;;;;5.75;3.30;;;;;;;9.58;68.61;96440.63;2071459;28;20289;-66
2022/11/06 10:54:37;;;;;;;4.95;3.35;;;;;;;9.86;68.65;96437.63;2070593;28;20715;-66
2022/11/06 10:56:07;;;;;;;5.32;3.47;;;;;;;9.81;68.95;96437.00;2053327;28;20338;-66
2022/11/06 10:57:34;;;;;;;4.38;2.75;;;;;;;10.70;65.41;96428.56;2067067;28;20234;-66
2022/11/06 10:58:36;;;;;;;4.88;3.22;;;;;;;10.49;67.04;96420.84;2071398;28;20202;-66
2022/11/06 10:59:37;;;;;;;6.03;3.63;;;;;;;11.07;65.76;96411.94;2071772;28;20210;-66
2022/11/06 11:00:39;;;;;;;4.85;3.30;;;;;;;10.72;64.47;96392.78;2071438;28;20302;-66
2022/11/06 11:01:40;;;;;;;5.65;3.38;;;;;;;11.31;63.79;96410.75;2070481;28;20814;-66
2022/11/06 11:02:52;;;;;;;5.95;4.07;;;;;;;11.32;63.63;96413.28;2071828;28;20200;-66
2022/11/06 11:03:53;;;;;;;5.38;2.92;;;;;;;10.70;65.43;96410.28;2071626;28;20205;-66
2022/11/06 11:04:55;;;;;;;5.03;3.30;;;;;;;11.44;62.71;96415.28;2071553;28;20218;-66
2022/11/06 11:06:00;;;;;;;6.50;3.85;;;;;;;12.06;62.06;96405.97;2070874;28;20199;-66
2022/11/06 11:07:13;;;;;;;4.47;3.20;;;;;;;12.54;60.74;96395.47;2071556;28;20231;-66
2022/11/06 11:08:34;;;;;;;5.95;2.70;;;;;;;12.01;62.02;96403.59;2071422;28;20253;-67
2022/11/06 11:09:35;;;;;;;7.75;3.08;;;;;;;11.16;63.53;96394.94;2070126;28;20288;-66
2022/11/06 11:10:41;;;;;;;5.40;3.22;;;;;;;11.17;64.14;96374.88;2070362;28;20235;-66
2022/11/06 11:11:48;;;;;;;4.93;3.17;;;;;;;11.89;63.41;96383.31;2071141;28;20262;-66
2022/11/06 11:12:52;;;;;;;5.03;3.53;;;;;;;12.00;61.64;96396.69;2066785;28;20203;-66
2022/11/06 11:14:00;;;;;;;5.85;3.60;;;;;;;12.09;61.79;96396.16;2059391;28;20227;-66
2022/11/06 11:15:12;;;;;;;6.30;3.40;;;;;;;12.58;59.06;96376.88;2069645;28;20921;-66
2022/11/06 11:16:19;;;;;;;5.05;3.15;;;;;;;12.16;62.24;96388.81;2068886;28;20249;-66
2022/11/06 11:17:20;;;;;;;4.80;2.60;;;;;;;11.95;60.37;96382.09;2070276;28;20861;-67
2022/11/06 11:18:30;;;;;;;5.40;2.88;;;;;;;11.60;61.16;96383.94;2075722;28;20257;-66
2022/11/06 11:19:33;;;;;;;3.50;2.13;;;;;;;11.62;61.80;96383.84;2074755;28;20202;-66
2022/11/06 11:20:39;;;;;;;4.32;2.60;;;;;;;11.47;61.87;96372.44;2071681;28;20257;-66
2022/11/06 11:21:58;;;;;;;4.30;2.42;;;;;;;11.81;61.35;96370.63;2070938;28;20697;-67
2022/11/06 11:23:13;;;;;;;4.18;2.60;;;;;;;10.97;63.50;96371.50;2071134;28;20296;-66
2022/11/06 11:24:15;;;;;;;3.22;2.05;;;;;;;11.36;62.17;96378.22;2069924;28;20312;-67
2022/11/06 11:25:24;;;;;;;3.60;2.20;;;;;;;11.63;61.08;96374.22;2071613;28;20283;-66
2022/11/06 11:26:32;;;;;;;3.70;2.30;;;;;;;12.06;60.09;96371.94;2070619;28;20258;-66
2022/11/06 11:27:37;;;;;;;5.72;2.80;;;;;;;11.52;61.98;96372.19;2071467;28;20294;-66
2022/11/06 11:28:39;;;;;;;3.22;2.17;;;;;;;11.57;61.90;96363.16;2071953;28;20201;-67
2022/11/06 11:29:46;;;;;;;6.05;2.83;;;;;;;12.08;61.04;96367.47;2070015;28;20300;-66
2022/11/06 11:31:15;;;;;;;5.65;2.72;;;;;;;12.47;58.92;96365.31;2072739;28;20638;-67
2022/11/06 11:32:20;;;;;;;4.30;2.70;;;;;;;11.36;62.13;96366.91;2071261;28;20611;-67
2022/11/06 11:33:25;;;;;;;4.50;2.33;;;;;;;11.60;61.49;96349.94;2071379;28;20261;-67
2022/11/06 11:34:33;;;;;;;3.30;2.20;;;;;;;11.51;61.44;96370.50;2070778;28;20291;-66
2022/11/06 11:35:37;;;;;;;4.18;2.50;;;;;;;11.78;61.16;96355.09;2071443;28;20240;-66
2022/11/06 11:36:59;;;;;;;3.17;2.08;;;;;;;11.65;60.56;96356.69;2071035;28;20736;-65
2022/11/06 11:38:20;;;;;;;6.20;3.58;;;;;;;11.68;60.28;96344.31;2078235;28;20707;-64
2022/11/06 11:39:26;;;;;;;3.90;2.90;;;;;;;11.72;61.15;96360.69;2076321;28;20242;-64
2022/11/06 11:40:36;;;;;;;4.63;2.58;;;;;;;12.48;59.81;96353.91;2071173;28;20665;-64
2022/11/06 11:41:38;;;;;;;4.03;2.80;;;;;;;12.72;58.56;96368.25;2070519;28;20234;-64
2022/11/06 11:42:39;;;;;;;7.32;2.60;;;;;;;12.64;60.03;96356.50;2070898;28;20249;-65
2022/11/06 11:43:41;;;;;;;4.07;2.60;;;;;;;12.50;60.46;96349.44;2070782;28;20241;-64
2022/11/06 11:44:42;;;;;;;3.50;2.35;;;;;;;13.12;58.21;96319.66;2071401;28;20330;-64
2022/11/06 11:46:09;;;;;;;4.45;2.50;;;;;;;13.45;58.07;96340.41;2072729;28;20292;-64
2022/11/06 11:47:22;;;;;;;6.70;2.22;;;;;;;12.52;58.87;96339.69;2069990;28;20344;-64
2022/11/06 11:48:23;;;;;;;4.40;2.92;;;;;;;12.40;60.45;96342.13;2071314;28;20204;-64
2022/11/06 11:49:31;;;;;;;3.92;2.42;;;;;;;13.49;57.05;96341.06;2071408;28;20725;-65
2022/11/06 11:50:33;;;;;;;4.45;2.67;;;;;;;14.27;54.86;96342.31;2071398;28;20233;-64
2022/11/06 11:51:41;;;;;;;4.22;2.25;;;;;;;14.16;55.21;96343.03;2070875;28;20255;-65
2022/11/06 11:52:45;;;;;;;3.25;2.20;;;;;;;13.49;56.01;96352.38;2071416;28;20284;-64
2022/11/06 11:53:47;;;;;;;2.75;2.03;;;;;;;12.46;59.06;96361.03;2071279;28;20296;-65
2022/11/06 11:54:52;;;;;;;3.58;2.10;;;;;;;11.64;61.42;96347.97;2071321;28;20246;-65
2022/11/06 11:55:54;;;;;;;4.25;2.40;;;;;;;11.96;60.14;96342.84;2070859;28;20204;-65
2022/11/06 11:56:59;;;;;;;4.93;2.65;;;;;;;12.27;60.00;96314.09;2071186;28;20210;-64
2022/11/06 11:58:17;;;;;;;2.58;1.90;;;;;;;12.88;58.26;96343.75;2071047;28;20219;-64
2022/11/06 11:59:26;;;;;;;4.47;3.00;;;;;;;12.33;59.74;96337.28;2070356;28;20247;-65
2022/11/06 12:00:28;;;;;;;4.40;3.00;;;;;;;11.91;61.95;96331.75;2072467;28;20241;-64
2022/11/06 12:01:35;;;;;;;4.25;2.60;;;;;;;11.51;61.66;96326.88;2072475;28;20343;-63
2022/11/06 12:02:45;;;;;;;3.83;2.50;;;;;;;11.70;62.66;96315.44;2070768;28;20201;-65
2022/11/06 12:03:51;;;;;;;3.95;2.38;;;;;;;11.69;62.20;96311.13;2071426;28;20952;-65
2022/11/06 12:04:57;;;;;;;4.70;3.15;;;;;;;11.76;62.80;96312.50;2071210;28;20234;-65
2022/11/06 12:06:18;;;;;;;4.95;2.75;;;;;;;11.43;63.64;96302.94;2070646;28;20673;-65
2022/11/06 12:07:25;;;;;;;4.57;2.30;;;;;;;11.69;62.12;96304.13;2071070;28;20306;-65
2022/11/06 12:08:26;;;;;;;3.25;2.40;;;;;;;11.14;63.55;96281.78;2070836;28;20464;-65
2022/11/06 12:09:32;;;;;;;3.20;2.40;;;;;;;12.06;62.90;96306.50;2073743;28;20287;-65
2022/11/06 12:10:40;;;;;;;4.40;2.40;;;;;;;12.46;60.18;96306.88;2069859;28;20291;-65
2022/11/06 12:11:42;;;;;;;6.38;2.65;;;;;;;12.17;60.85;96264.88;2069497;28;20857;-65
2022/11/06 12:12:50;;;;;;;3.28;2.40;;;;;;;12.19;61.60;96301.41;2070805;28;20248;-65
2022/11/06 12:14:16;;;;;;;3.30;1.95;;;;;;;12.12;61.45;96302.72;2070796;28;20208;-65
2022/11/06 12:15:23;;;;;;;4.78;2.10;;;;;;;11.51;62.41;96300.72;2070917;28;20349;-64
2022/11/06 12:16:24;;;;;;;2.97;1.40;;;;;;;11.31;62.10;96303.56;2070443;28;20718;-65
2022/11/06 12:17:26;;;;;;;3.78;2.05;;;;;;;11.33;62.21;96307.78;2070657;28;20667;-65
2022/11/06 12:18:35;;;;;;;8.48;2.22;;;;;;;10.90;63.02;96307.44;2071233;28;20246;-65
2022/11/06 12:19:38;;;;;;;2.60;1.80;;;;;;;10.80;63.70;96303.59;2071201;28;20230;-65
2022/11/06 12:20:53;;;;;;;2.33;1.55;;;;;;;10.58;64.68;96307.31;2070972;28;20231;-65
2022/11/06 12:22:00;;;;;;;3.33;2.05;;;;;;;10.38;64.55;96293.47;2070438;28;20708;-65
2022/11/06 12:23:05;;;;;;;3.35;1.65;;;;;;;10.01;66.33;96297.00;2070552;28;20233;-65
2022/11/06 12:24:14;;;;;;;2.97;1.65;;;;;;;10.42;66.67;96299.38;2071386;28;20284;-65
2022/11/06 12:25:33;;;;;;;3.63;2.40;;;;;;;10.21;67.07;96283.81;2071252;28;20203;-67
2022/11/06 12:26:47;;;;;;;4.85;2.55;;;;;;;10.03;67.15;96254.28;2076805;28;20226;-65
2022/11/06 12:27:59;;;;;;;4.25;2.53;;;;;;;10.06;68.00;96295.00;2070633;28;20195;-64
2022/11/06 12:29:09;;;;;;;3.97;2.25;;;;;;;10.25;67.95;96290.56;2070670;28;20283;-65
2022/11/06 12:30:14;;;;;;;4.05;2.08;;;;;;;9.99;69.05;96280.56;2072378;28;20703;-65
2022/11/06 12:31:30;;;;;;;3.40;1.75;;;;;;;10.12;68.72;96290.34;2072351;28;20222;-65
2022/11/06 12:32:59;;;;;;;4.03;2.45;;;;;;;10.18;68.10;96286.56;2072490;28;20297;-65
2022/11/06 12:34:06;;;;;;;2.88;1.90;;;;;;;10.12;68.41;96286.91;2072962;28;20231;-65
2022/11/06 12:35:18;;;;;;;2.90;1.98;;;;;;;10.15;67.65;96278.91;2072091;28;20201;-65
2022/11/06 12:36:23;;;;;;;6.78;1.85;;;;;;;9.83;68.57;96268.25;2072218;28;20306;-65
2022/11/06 12:37:38;;;;;;;2.53;1.42;;;;;;;9.60;69.15;96287.59;2072099;28;20246;-64
2022/11/06 12:38:47;;;;;;;12.13;6.18;;;;;;;9.71;69.71;96285.31;2066877;28;20721;-67
2022/11/06 12:40:01;;;;;;;9.18;4.20;;;;;;;9.95;68.78;96283.34;2069807;28;20298;-65
2022/11/06 12:41:26;;;;;;;3.10;1.80;;;;;;;9.85;69.37;96270.78;2071455;28;20248;-68
2022/11/06 12:42:31;;;;;;;3.20;1.70;;;;;;;9.82;69.81;96284.00;2072461;28;20775;-67
2022/11/06 12:43:39;;;;;;;2.88;1.60;;;;;;;9.89;68.18;96274.94;2071481;28;20288;-67
2022/11/06 12:44:41;;;;;;;4.00;1.83;;;;;;;9.72;69.67;96280.97;2079914;28;20285;-67
2022/11/06 12:46:09;;;;;;;4.97;2.00;;;;;;;9.82;67.93;96273.56;2079712;28;20794;-68
2022/11/06 12:47:30;;;;;;;4.30;1.90;;;;;;;9.73;68.73;96239.16;2066979;28;20725;-67
2022/11/06 12:49:09;;;;;;;2.38;1.30;;;;;;;9.55;68.92;96277.38;2072535;28;20922;-67
2022/11/06 12:50:37;;;;;;;3.33;1.80;;;;;;;9.68;68.92;96280.25;2072682;28;20661;-68
2022/11/06 12:51:46;;;;;;;2.17;1.40;;;;;;;9.80;69.66;96268.41;2071579;28;20241;-67
2022/11/06 12:52:56;;;;;;;2.60;1.58;;;;;;;10.30;68.19;96259.88;2071500;28;20199;-67
2022/11/06 12:54:32;;;;;;;3.05;2.08;;;;;;;10.72;66.55;96263.03;2065903;28;20200;-67
2022/11/06 12:55:57;;;;;;;3.47;1.75;;;;;;;10.69;65.59;96252.78;2072166;28;20229;-68
2022/11/06 12:57:15;;;;;;;3.00;1.77;;;;;;;10.21;67.21;96255.13;2072401;28;20712;-68
2022/11/06 12:58:52;;;;;;;3.55;1.90;;;;;;;10.61;66.49;96240.09;2072706;28;20602;-68
2022/11/06 13:00:08;;;;;;;2.75;1.65;;;;;;;10.86;66.18;96248.44;2072676;28;20202;-68
2022/11/06 13:01:25;;;;;;;5.20;1.65;;;;;;;10.88;64.53;96251.78;2071841;28;20203;-68
2022/11/06 13:02:53;;;;;;;3.58;1.60;;;;;;;10.71;64.50;96232.63;2072343;28;20199;-68
2022/11/06 13:04:03;;;;;;;4.78;1.70;;;;;;;10.76;65.25;96248.91;2072409;28;20853;-68
2022/11/06 13:05:14;;;;;;;3.03;1.75;;;;;;;10.60;64.20;96251.47;2071953;28;20260;-68
2022/11/06 13:06:32;;;;;;;3.50;1.52;;;;;;;9.66;66.47;96247.34;2071803;28;20226;-68
2022/11/06 13:07:51;;;;;;;2.90;1.50;;;;;;;9.95;65.39;96232.91;2071649;28;20650;-68
2022/11/06 13:09:23;;;;;;;3.55;1.35;;;;;;;9.96;66.31;96242.44;2071182;28;20236;-68
2022/11/06 13:11:10;;;;;;;3.58;1.50;;;;;;;10.09;66.26;96240.94;2072199;28;20295;-67
2022/11/06 13:12:32;;;;;;;2.15;1.35;;;;;;;10.05;66.38;96243.75;2071305;28;20707;-68
2022/11/06 13:13:55;;;;;;;2.95;1.30;;;;;;;10.11;66.08;96233.03;2071924;28;20230;-68
2022/11/06 13:15:30;;;;;;;2.67;1.38;;;;;;;9.37;68.35;96200.03;2072253;28;20295;-69
2022/11/06 13:16:54;;;;;;;4.25;1.40;;;;;;;9.39;68.06;96229.50;2071072;28;20263;-69
2022/11/06 13:18:23;;;;;;;2.33;1.33;;;;;;;9.50;67.87;96228.97;2058957;28;20304;-68
2022/11/06 13:19:47;;;;;;;3.28;1.42;;;;;;;9.40;68.03;96232.03;2068454;28;20293;-68
2022/11/06 13:21:11;;;;;;;2.30;1.35;;;;;;;9.39;68.36;96224.28;2072389;28;20281;-67
2022/11/06 13:22:45;;;;;;;2.55;1.15;;;;;;;9.49;68.33;96199.47;2072268;28;20301;-68
2022/11/06 13:23:50;;;;;;;2.53;1.60;;;;;;;9.46;69.08;96233.50;2066711;28;20288;-68
2022/11/06 13:24:59;;;;;;;2.35;1.42;;;;;;;9.35;68.95;96223.56;2071927;28;20352;-68
2022/11/06 13:26:09;;;;;;;2.20;1.27;;;;;;;9.34;68.67;96224.47;2073752;28;20230;-68
2022/11/06 13:27:41;;;;;;;3.05;1.30;;;;;;;9.59;67.94;96223.34;2073375;28;20241;-68